HETCH HETCHY (HTH)

Elevation: 3870' · TUOLUMNE R basin · Operator: Hetch Hetchy Water and Power

Provisional data, subject to change.
Query executed Tuesday at 0:58:21   clock

Select a sensor type for a plot of data.
Note: Reservoir Flows are daily averages.

Earlier

Date RES ELE    STORAGE    RES CHG    OUTFLOW    INFLOW    PPT INC    RAIN    PPTINC4   
 FEET   AF   AF   CFS   CFS   INCHES   INCHES   INCHES  
03/01/2015 -- 249160 -- 328 -- 0.19 13.13 0.24
03/02/2015 -- 248988 -- 323 -- 0.17 13.30 0.00
03/03/2015 -- 248816 -- 337 -- 0.09 13.39 0.23
03/04/2015 -- 248472 -- 391 -- 0.00 13.39 0.00
03/05/2015 -- 248128 -- 481 -- 0.00 13.39 0.00
03/06/2015 -- 247784 -- 426 -- 0.00 13.39 0.00
03/07/2015 -- 247268 -- 429 -- 0.00 13.39 0.00
03/08/2015 -- 246924 -- 384 -- 0.00 13.39 0.00
03/09/2015 -- 246752 -- 377 -- 0.00 13.39 0.00
03/10/2015 -- 246236 -- 425 -- 0.00 13.39 0.00
03/11/2015 -- 245892 -- 444 -- 0.00 13.39 0.00
03/12/2015 -- 245720 -- 450 -- 0.04 13.43 0.03
03/13/2015 -- 245378 -- 396 -- 0.00 13.43 0.00
03/14/2015 -- 245036 -- 463 -- 0.00 13.43 0.00
03/15/2015 -- 245378 -- 253 -- 0.00 13.43 0.00
03/16/2015 -- 245720 -- 363 -- 0.00 13.43 0.00
03/17/2015 -- 245892 -- 423 -- 0.00 13.43 0.00
03/18/2015 -- 246236 -- 439 -- 0.00 13.43 0.00
03/19/2015 -- 246580 -- 411 -- 0.00 13.43 0.00
03/20/2015 -- 246752 -- 426 -- 0.00 13.43 0.00
03/21/2015 -- 246924 -- 419 -- 0.00 13.43 0.00
03/22/2015 -- 247096 -- 444 -- 0.00 13.43 0.00
03/23/2015 -- 247612 -- 418 -- 0.28 13.71 0.26
03/24/2015 -- 247612 -- 424 -- 0.00 13.71 0.00
03/25/2015 -- 247784 -- 426 -- 0.00 13.71 0.00
03/26/2015 -- 247784 -- 429 -- 0.00 13.71 0.00
03/27/2015 -- -- -- -- -- 0.00 13.71 0.00
03/28/2015 -- -- -- -- -- 0.00 13.71 0.00
03/29/2015 -- -- -- -- -- 0.00 13.71 0.00
03/30/2015 -- -- -- -- -- 0.00 -- 0.00
03/31/2015 -- -- -- -- -- -- -- --

Later | Latest

Warning! This data is preliminary and subject to revision.

Show HTH Map | Plot HTH Data | 1 Month HTH Data | Real-Time HTH Data | HTH Info